createdAt,value
2022-11-09T00:01:56.493Z,9.10
2022-11-09T00:04:41.708Z,9.10
2022-11-09T00:07:30.674Z,9.10
2022-11-09T00:10:16.311Z,9.10
2022-11-09T00:13:02.352Z,9.10
2022-11-09T00:15:48.039Z,9.20
2022-11-09T00:18:35.415Z,9.10
2022-11-09T00:21:23.332Z,9.10
2022-11-09T00:24:08.682Z,9.10
2022-11-09T00:26:54.114Z,9.10
2022-11-09T00:29:39.819Z,9.10
2022-11-09T00:32:27.805Z,9.20
2022-11-09T00:35:13.349Z,9.20
2022-11-09T00:37:59.106Z,9.20
2022-11-09T00:40:44.353Z,9.20
2022-11-09T00:43:30.176Z,9.10
2022-11-09T00:46:16.274Z,9.10
2022-11-09T00:49:02.083Z,9.00
2022-11-09T00:51:47.807Z,9.00
2022-11-09T00:54:33.350Z,9.00
2022-11-09T00:57:18.840Z,9.00
2022-11-09T01:00:04.732Z,9.10
2022-11-09T01:02:51.238Z,9.10
2022-11-09T01:05:39.522Z,9.10
2022-11-09T01:08:25.915Z,9.00
2022-11-09T01:11:12.322Z,9.10
2022-11-09T01:13:59.581Z,9.00
2022-11-09T01:16:45.155Z,9.10
2022-11-09T01:19:30.705Z,9.10
2022-11-09T01:22:17.179Z,9.10
2022-11-09T01:25:02.496Z,9.00
2022-11-09T01:27:47.985Z,9.10
2022-11-09T01:30:43.386Z,9.10
2022-11-09T01:33:28.995Z,9.10
2022-11-09T01:36:24.779Z,9.10
2022-11-09T01:39:10.036Z,9.20
2022-11-09T01:41:55.698Z,9.20
2022-11-09T01:44:41.256Z,9.20
2022-11-09T01:47:27.110Z,9.20
2022-11-09T01:50:15.815Z,9.20
2022-11-09T01:53:03.666Z,9.10
2022-11-09T01:55:52.890Z,9.00
2022-11-09T01:58:44.152Z,9.10
2022-11-09T02:01:31.061Z,9.10
2022-11-09T02:04:24.845Z,9.10
2022-11-09T02:07:10.451Z,9.20
2022-11-09T02:10:07.134Z,9.20
2022-11-09T02:12:53.422Z,9.20
2022-11-09T02:15:44.307Z,9.30
2022-11-09T02:18:32.862Z,9.30
2022-11-09T02:21:18.998Z,9.40
2022-11-09T02:24:04.791Z,9.40
2022-11-09T02:26:52.402Z,9.40
2022-11-09T02:29:41.193Z,9.50
2022-11-09T02:32:29.379Z,9.60
2022-11-09T02:35:14.734Z,9.60
2022-11-09T02:38:00.346Z,9.60
2022-11-09T02:40:51.493Z,9.50
2022-11-09T02:43:37.325Z,9.50
2022-11-09T02:46:34.978Z,9.60
2022-11-09T02:49:20.460Z,9.60
2022-11-09T02:52:06.258Z,9.70
2022-11-09T02:54:51.527Z,9.70
2022-11-09T02:57:37.203Z,9.90
2022-11-09T03:00:22.494Z,9.90
2022-11-09T03:03:08.341Z,10.00
2022-11-09T03:05:53.629Z,10.00
2022-11-09T03:08:39.362Z,10.20
2022-11-09T03:11:24.908Z,10.20
2022-11-09T03:14:11.287Z,10.40
2022-11-09T03:16:57.337Z,10.40
2022-11-09T03:19:43.541Z,10.50
2022-11-09T03:22:29.193Z,10.50
2022-11-09T03:25:14.531Z,10.60
2022-11-09T03:28:02.399Z,10.70
2022-11-09T03:30:47.668Z,10.80
2022-11-09T03:33:33.474Z,10.80
2022-11-09T03:36:18.786Z,10.70
2022-11-09T03:39:04.380Z,10.60
2022-11-09T03:41:50.218Z,10.50
2022-11-09T03:44:35.708Z,10.50
2022-11-09T03:47:20.968Z,10.40
2022-11-09T03:50:06.889Z,10.30
2022-11-09T03:52:52.648Z,10.30
2022-11-09T03:55:39.133Z,10.30
2022-11-09T03:58:24.801Z,10.30
2022-11-09T04:01:11.025Z,10.20
2022-11-09T04:03:56.893Z,10.20
2022-11-09T04:06:42.815Z,10.10
2022-11-09T04:09:28.433Z,10.10
2022-11-09T04:12:14.136Z,10.10
2022-11-09T04:14:59.553Z,10.10
2022-11-09T04:17:45.334Z,10.00
2022-11-09T04:20:31.596Z,9.90
2022-11-09T04:23:17.718Z,10.00
2022-11-09T04:26:03.535Z,10.00
2022-11-09T04:28:48.949Z,10.00
2022-11-09T04:31:34.623Z,10.10
2022-11-09T04:34:20.290Z,10.10
2022-11-09T04:37:05.980Z,10.10
2022-11-09T04:39:51.329Z,10.20
2022-11-09T04:42:36.897Z,10.20
2022-11-09T04:45:22.710Z,10.20
2022-11-09T04:48:09.730Z,10.20
2022-11-09T04:51:01.051Z,10.20
2022-11-09T04:53:46.712Z,10.20
2022-11-09T04:56:32.539Z,10.20
2022-11-09T04:59:18.097Z,10.20
2022-11-09T05:02:03.591Z,10.30
2022-11-09T05:04:49.498Z,10.30
2022-11-09T05:07:34.985Z,10.20
2022-11-09T05:10:20.551Z,10.30
2022-11-09T05:13:08.564Z,10.30
2022-11-09T05:15:53.779Z,10.30
2022-11-09T05:18:39.520Z,10.30
2022-11-09T05:21:25.053Z,10.40
2022-11-09T05:24:10.280Z,10.40
2022-11-09T05:26:57.089Z,10.40
2022-11-09T05:29:42.622Z,10.40
2022-11-09T05:32:28.311Z,10.50
2022-11-09T05:35:14.276Z,10.50
2022-11-09T05:37:59.550Z,10.60
2022-11-09T05:40:47.563Z,10.60
2022-11-09T05:43:33.487Z,10.70
2022-11-09T05:46:19.756Z,10.80
2022-11-09T05:49:05.066Z,10.80
2022-11-09T05:51:50.869Z,10.70
2022-11-09T05:54:36.500Z,10.70
2022-11-09T05:57:22.068Z,10.60
2022-11-09T06:00:10.932Z,10.70
2022-11-09T06:03:23.494Z,10.60
2022-11-09T06:06:10.777Z,10.60
2022-11-09T06:08:56.516Z,10.70
2022-11-09T06:11:42.424Z,10.70
2022-11-09T06:14:28.008Z,10.60
2022-11-09T06:17:13.556Z,10.60
2022-11-09T06:19:58.777Z,10.60
2022-11-09T06:22:44.586Z,10.50
2022-11-09T06:25:31.994Z,10.40
2022-11-09T06:28:17.773Z,10.50
2022-11-09T06:31:05.784Z,10.50
2022-11-09T06:33:51.639Z,10.50
2022-11-09T06:36:37.177Z,10.60
2022-11-09T06:39:23.408Z,10.60
2022-11-09T06:42:08.814Z,10.60
2022-11-09T06:44:54.125Z,10.70
2022-11-09T06:47:39.806Z,10.70
2022-11-09T06:50:27.019Z,10.70
2022-11-09T06:53:15.151Z,10.80
2022-11-09T06:56:02.734Z,10.80
2022-11-09T06:58:48.441Z,10.80
2022-11-09T07:01:34.026Z,10.80
2022-11-09T07:04:19.667Z,10.70
2022-11-09T07:07:05.155Z,10.70
2022-11-09T07:09:50.485Z,10.60
2022-11-09T07:12:36.207Z,10.70
2022-11-09T07:15:21.684Z,10.70
2022-11-09T07:18:10.823Z,10.60
2022-11-09T07:20:56.291Z,10.60
2022-11-09T07:23:42.489Z,10.60
2022-11-09T07:26:28.195Z,10.70
2022-11-09T07:29:13.836Z,10.70
2022-11-09T07:31:59.323Z,10.80
2022-11-09T07:34:46.575Z,10.70
2022-11-09T07:37:32.787Z,10.80
2022-11-09T07:40:19.047Z,10.80
2022-11-09T07:43:06.228Z,10.90
2022-11-09T07:45:51.638Z,10.80
2022-11-09T07:48:37.253Z,10.70
2022-11-09T07:51:25.880Z,10.80
2022-11-09T07:54:11.958Z,10.70
2022-11-09T07:56:57.604Z,10.80
2022-11-09T07:59:42.984Z,10.90
2022-11-09T08:02:28.431Z,10.90
2022-11-09T08:05:14.127Z,10.90
2022-11-09T08:08:01.813Z,11.00
2022-11-09T08:10:51.507Z,11.10
2022-11-09T08:13:37.043Z,11.20
2022-11-09T08:16:23.350Z,11.20
2022-11-09T08:19:10.707Z,11.30
2022-11-09T08:21:58.062Z,11.30
2022-11-09T08:24:43.752Z,11.30
2022-11-09T08:27:30.935Z,11.30
2022-11-09T08:30:19.624Z,11.40
2022-11-09T08:33:05.369Z,11.40
2022-11-09T08:35:53.421Z,11.40
2022-11-09T08:38:39.938Z,11.40
2022-11-09T08:41:25.512Z,11.40
2022-11-09T08:44:11.069Z,11.40
2022-11-09T08:46:56.642Z,11.30
2022-11-09T08:49:44.293Z,11.30
2022-11-09T08:52:29.772Z,11.30
2022-11-09T08:55:15.251Z,11.30
2022-11-09T08:58:02.701Z,11.30
2022-11-09T09:00:48.896Z,11.20
2022-11-09T09:03:34.522Z,11.30
2022-11-09T09:06:20.010Z,11.40
2022-11-09T09:09:05.532Z,11.60
2022-11-09T09:11:50.996Z,11.60
2022-11-09T09:14:36.929Z,11.70
2022-11-09T09:17:23.236Z,11.80
2022-11-09T09:20:09.106Z,11.90
2022-11-09T09:22:57.764Z,11.90
2022-11-09T09:25:44.162Z,12.00
2022-11-09T09:28:29.780Z,12.00
2022-11-09T09:31:18.371Z,12.10
2022-11-09T09:34:04.349Z,12.20
2022-11-09T09:36:52.049Z,12.30
2022-11-09T09:39:37.873Z,12.30
2022-11-09T09:42:34.030Z,12.40
2022-11-09T09:45:23.920Z,12.50
2022-11-09T09:48:50.828Z,12.60
2022-11-09T09:52:00.328Z,12.70
2022-11-09T09:55:10.292Z,13.10
2022-11-09T09:58:01.091Z,13.30
2022-11-09T10:00:48.220Z,13.60
2022-11-09T10:03:34.115Z,13.90
2022-11-09T10:06:44.496Z,14.20
2022-11-09T10:09:53.864Z,14.60
2022-11-09T10:12:53.119Z,14.80
2022-11-09T10:15:49.551Z,15.00
2022-11-09T10:18:53.285Z,15.10
2022-11-09T10:21:48.764Z,15.30
2022-11-09T10:25:27.365Z,15.50
2022-11-09T10:28:17.562Z,15.60
2022-11-09T10:31:03.988Z,15.70
2022-11-09T10:34:16.660Z,15.80
2022-11-09T10:37:15.389Z,15.80
2022-11-09T10:40:09.418Z,15.90
2022-11-09T10:42:58.878Z,15.90
2022-11-09T10:45:46.799Z,15.90
2022-11-09T10:48:36.273Z,16.10
2022-11-09T10:51:42.835Z,16.20
2022-11-09T10:54:38.132Z,16.30
2022-11-09T10:57:24.833Z,16.30
2022-11-09T11:00:19.344Z,16.40
2022-11-09T11:03:18.084Z,16.40
2022-11-09T11:06:15.508Z,16.40
2022-11-09T11:09:06.780Z,16.40
2022-11-09T11:12:16.584Z,16.50
2022-11-09T11:15:02.127Z,16.50
2022-11-09T11:17:47.844Z,16.50
2022-11-09T11:20:35.809Z,16.60
2022-11-09T11:23:26.353Z,16.50
2022-11-09T11:26:27.411Z,16.50
2022-11-09T11:29:29.338Z,16.50
2022-11-09T11:32:17.713Z,16.40
2022-11-09T11:35:14.646Z,16.40
2022-11-09T11:38:22.276Z,16.40
2022-11-09T11:41:48.438Z,16.40
2022-11-09T11:45:18.956Z,16.50
2022-11-09T11:48:15.458Z,16.50
2022-11-09T11:51:09.424Z,16.60
2022-11-09T11:54:03.466Z,16.60
2022-11-09T11:57:08.038Z,16.70
2022-11-09T12:00:01.195Z,16.70
2022-11-09T12:03:10.701Z,16.80
2022-11-09T12:06:14.854Z,16.70
2022-11-09T12:09:18.823Z,16.60
2022-11-09T12:12:39.247Z,16.60
2022-11-09T12:15:34.212Z,16.60
2022-11-09T12:18:57.032Z,16.60
2022-11-09T12:22:08.703Z,16.60
2022-11-09T12:25:19.354Z,16.70
2022-11-09T12:28:16.919Z,16.50
2022-11-09T12:31:46.585Z,16.60
2022-11-09T12:34:58.148Z,16.50
2022-11-09T12:38:19.211Z,16.50
2022-11-09T12:41:10.931Z,16.60
2022-11-09T12:44:19.150Z,16.60
2022-11-09T12:47:15.926Z,16.60
2022-11-09T12:50:01.576Z,16.60
2022-11-09T12:52:52.257Z,16.60
2022-11-09T12:55:41.070Z,16.50
2022-11-09T12:58:29.322Z,16.50
2022-11-09T13:01:34.715Z,16.50
2022-11-09T13:04:21.984Z,16.50
2022-11-09T13:07:07.692Z,16.50
2022-11-09T13:09:58.890Z,16.40
2022-11-09T13:12:44.205Z,16.40
2022-11-09T13:15:33.585Z,16.40
2022-11-09T13:18:45.425Z,16.30
2022-11-09T13:21:33.468Z,16.20
2022-11-09T13:24:31.555Z,16.20
2022-11-09T13:27:37.603Z,16.20
2022-11-09T13:30:28.686Z,16.00
2022-11-09T13:33:24.641Z,16.00
2022-11-09T13:36:10.336Z,16.00
2022-11-09T13:39:26.702Z,16.00
2022-11-09T13:42:36.672Z,15.90
2022-11-09T13:45:21.866Z,15.90
2022-11-09T13:48:22.239Z,15.80
2022-11-09T13:51:09.997Z,15.80
2022-11-09T13:54:01.210Z,15.70
2022-11-09T13:56:48.481Z,15.70
2022-11-09T13:59:39.479Z,15.70
2022-11-09T14:02:26.624Z,15.60
2022-11-09T14:05:37.643Z,15.60
2022-11-09T14:08:27.309Z,15.50
2022-11-09T14:11:34.182Z,15.50
2022-11-09T14:14:31.773Z,15.40
2022-11-09T14:17:49.423Z,15.40
2022-11-09T14:21:13.450Z,15.40
2022-11-09T14:24:14.035Z,15.30
2022-11-09T14:27:08.823Z,15.30
2022-11-09T14:29:57.116Z,15.30
2022-11-09T14:32:49.611Z,15.20
2022-11-09T14:35:35.951Z,15.10
2022-11-09T14:38:47.480Z,15.10
2022-11-09T14:41:33.202Z,15.10
2022-11-09T14:44:42.485Z,15.00
2022-11-09T14:47:30.096Z,14.90
2022-11-09T14:50:45.142Z,14.90
2022-11-09T14:53:38.733Z,14.80
2022-11-09T14:56:25.101Z,14.80
2022-11-09T14:59:34.274Z,14.80
2022-11-09T15:02:22.298Z,14.80
2022-11-09T15:05:27.842Z,14.80
2022-11-09T15:08:19.036Z,14.70
2022-11-09T15:11:05.084Z,14.70
2022-11-09T15:13:50.571Z,14.70
2022-11-09T15:16:36.471Z,14.60
2022-11-09T15:19:32.513Z,14.60
2022-11-09T15:22:40.099Z,14.50
2022-11-09T15:25:44.622Z,14.40
2022-11-09T15:28:31.645Z,14.40
2022-11-09T15:31:19.562Z,14.30
2022-11-09T15:34:24.293Z,14.30
2022-11-09T15:37:22.476Z,14.20
2022-11-09T15:40:13.138Z,14.10
2022-11-09T15:42:58.551Z,14.20
2022-11-09T15:45:43.960Z,14.20
2022-11-09T15:48:29.982Z,14.10
2022-11-09T15:51:15.995Z,14.00
2022-11-09T15:54:01.331Z,13.90
2022-11-09T15:56:47.233Z,13.90
2022-11-09T15:59:33.284Z,13.80
2022-11-09T16:02:19.176Z,13.80
2022-11-09T16:05:05.144Z,13.70
2022-11-09T16:07:52.804Z,13.60
2022-11-09T16:10:40.233Z,13.60
2022-11-09T16:13:25.694Z,13.70
2022-11-09T16:16:14.490Z,13.60
2022-11-09T16:19:00.036Z,13.60
2022-11-09T16:21:45.281Z,13.50
2022-11-09T16:24:30.583Z,13.50
2022-11-09T16:27:47.982Z,13.60
2022-11-09T16:30:22.326Z,13.60
2022-11-09T16:33:08.165Z,13.60
2022-11-09T16:35:55.732Z,13.60
2022-11-09T16:38:47.719Z,13.50
2022-11-09T16:41:33.146Z,13.40
2022-11-09T16:44:23.879Z,13.40
2022-11-09T16:47:12.614Z,13.30
2022-11-09T16:49:58.447Z,13.20
2022-11-09T16:52:44.759Z,13.10
2022-11-09T16:55:30.144Z,13.00
2022-11-09T16:58:16.013Z,13.00
2022-11-09T17:01:11.613Z,13.00
2022-11-09T17:03:58.259Z,12.80
2022-11-09T17:06:43.908Z,12.80
2022-11-09T17:09:34.049Z,12.80
2022-11-09T17:12:19.432Z,12.70
2022-11-09T17:15:05.302Z,12.70
2022-11-09T17:17:50.976Z,12.70
2022-11-09T17:20:49.978Z,12.70
2022-11-09T17:23:35.629Z,12.60
2022-11-09T17:26:22.955Z,12.60
2022-11-09T17:29:08.422Z,12.50
2022-11-09T17:31:54.179Z,12.60
2022-11-09T17:34:40.208Z,12.60
2022-11-09T17:37:26.322Z,12.60
2022-11-09T17:40:11.912Z,12.50
2022-11-09T17:42:57.234Z,12.50
2022-11-09T17:45:43.215Z,12.50
2022-11-09T17:48:28.894Z,12.50
2022-11-09T17:51:16.901Z,12.50
2022-11-09T17:54:04.117Z,12.40
2022-11-09T17:56:50.027Z,12.40
2022-11-09T17:59:35.499Z,12.40
2022-11-09T18:02:21.387Z,12.50
2022-11-09T18:05:06.975Z,12.40
2022-11-09T18:07:52.655Z,12.40
2022-11-09T18:10:40.915Z,12.40
2022-11-09T18:13:26.192Z,12.50
2022-11-09T18:16:17.662Z,12.50
2022-11-09T18:19:04.581Z,12.40
2022-11-09T18:21:50.199Z,12.50
2022-11-09T18:24:36.601Z,12.50
2022-11-09T18:27:26.081Z,12.40
2022-11-09T18:30:17.086Z,12.40
2022-11-09T18:33:02.477Z,12.50
2022-11-09T18:36:02.505Z,12.60
2022-11-09T18:38:51.223Z,12.50
2022-11-09T18:41:36.906Z,12.50
2022-11-09T18:44:22.499Z,12.50
2022-11-09T18:47:09.750Z,12.50
2022-11-09T18:49:55.566Z,12.40
2022-11-09T18:52:41.089Z,12.50
2022-11-09T18:55:26.636Z,12.50
2022-11-09T18:58:12.111Z,12.50
2022-11-09T19:01:03.986Z,12.50
2022-11-09T19:03:53.852Z,12.40
2022-11-09T19:06:42.393Z,12.30
2022-11-09T19:09:31.683Z,12.30
2022-11-09T19:12:17.392Z,12.30
2022-11-09T19:15:02.909Z,12.40
2022-11-09T19:17:48.468Z,12.30
2022-11-09T19:20:34.007Z,12.30
2022-11-09T19:23:19.501Z,12.30
2022-11-09T19:26:05.116Z,12.30
2022-11-09T19:28:50.766Z,12.30
2022-11-09T19:31:36.898Z,12.40
2022-11-09T19:34:22.586Z,12.40
2022-11-09T19:37:09.195Z,12.30
2022-11-09T19:39:55.053Z,12.20
2022-11-09T19:42:41.925Z,12.20
2022-11-09T19:45:28.100Z,12.30
2022-11-09T19:48:13.931Z,12.20
2022-11-09T19:50:59.676Z,12.20
2022-11-09T19:53:53.202Z,12.20
2022-11-09T19:56:38.843Z,12.20
2022-11-09T19:59:24.763Z,12.30
2022-11-09T20:02:10.773Z,12.30
2022-11-09T20:04:56.356Z,12.30
2022-11-09T20:07:42.160Z,12.20
2022-11-09T20:10:27.862Z,12.20
2022-11-09T20:13:13.486Z,12.20
2022-11-09T20:16:12.167Z,12.10
2022-11-09T20:18:57.931Z,12.10
2022-11-09T20:21:44.801Z,12.20
2022-11-09T20:24:30.462Z,12.10
2022-11-09T20:27:16.058Z,12.20
2022-11-09T20:30:01.718Z,12.20
2022-11-09T20:32:47.113Z,12.20
2022-11-09T20:35:33.400Z,12.20
2022-11-09T20:38:22.400Z,12.20
2022-11-09T20:41:10.629Z,12.10
2022-11-09T20:43:56.548Z,12.10
2022-11-09T20:46:41.820Z,12.00
2022-11-09T20:49:27.715Z,12.00
2022-11-09T20:52:13.900Z,12.00
2022-11-09T20:54:59.604Z,12.00
2022-11-09T20:57:45.386Z,12.00
2022-11-09T21:00:32.112Z,12.00
2022-11-09T21:03:17.438Z,12.00
2022-11-09T21:06:06.094Z,12.10
2022-11-09T21:08:53.752Z,12.00
2022-11-09T21:11:59.594Z,12.00
2022-11-09T21:14:45.428Z,12.00
2022-11-09T21:17:30.876Z,12.10
2022-11-09T21:20:16.882Z,12.10
2022-11-09T21:23:14.129Z,12.00
2022-11-09T21:26:18.797Z,12.00
2022-11-09T21:29:24.408Z,12.00
2022-11-09T21:32:11.144Z,12.10
2022-11-09T21:34:56.690Z,12.10
2022-11-09T21:37:42.357Z,12.10
2022-11-09T21:40:28.880Z,12.10
2022-11-09T21:43:15.125Z,12.10
2022-11-09T21:46:00.794Z,12.10
2022-11-09T21:48:46.020Z,12.20
2022-11-09T21:51:33.284Z,12.20
2022-11-09T21:54:19.478Z,12.30
2022-11-09T21:57:05.335Z,12.20
2022-11-09T21:59:50.852Z,12.20
2022-11-09T22:02:36.368Z,12.10
2022-11-09T22:05:22.971Z,12.10
2022-11-09T22:08:08.679Z,12.10
2022-11-09T22:11:06.701Z,12.00
2022-11-09T22:14:10.462Z,11.90
2022-11-09T22:16:55.853Z,11.90
2022-11-09T22:20:00.687Z,11.80
2022-11-09T22:22:46.164Z,11.80
2022-11-09T22:25:31.811Z,11.80
2022-11-09T22:28:17.491Z,11.70
2022-11-09T22:31:05.081Z,11.70
2022-11-09T22:33:51.194Z,11.60
2022-11-09T22:36:36.577Z,11.60
2022-11-09T22:39:22.872Z,11.60
2022-11-09T22:42:09.155Z,11.60
2022-11-09T22:44:54.779Z,11.60
2022-11-09T22:47:40.356Z,11.60
2022-11-09T22:50:26.076Z,11.60
2022-11-09T22:53:11.803Z,11.50
2022-11-09T22:55:59.230Z,11.40
2022-11-09T22:58:45.288Z,11.50
2022-11-09T23:01:30.862Z,11.50
2022-11-09T23:04:16.536Z,11.50
2022-11-09T23:07:02.380Z,11.50
2022-11-09T23:09:47.780Z,11.40
2022-11-09T23:12:34.323Z,11.40
2022-11-09T23:15:20.196Z,11.40
2022-11-09T23:18:24.270Z,11.50
2022-11-09T23:21:09.922Z,11.50
2022-11-09T23:23:58.266Z,11.50
2022-11-09T23:26:43.932Z,11.40
2022-11-09T23:29:29.738Z,11.30
2022-11-09T23:32:15.254Z,11.40
2022-11-09T23:35:00.734Z,11.50
2022-11-09T23:37:46.791Z,11.50
2022-11-09T23:40:38.408Z,11.40
2022-11-09T23:43:24.320Z,11.40
2022-11-09T23:46:13.424Z,11.40
2022-11-09T23:48:59.446Z,11.30
2022-11-09T23:51:45.148Z,11.30
2022-11-09T23:54:30.700Z,11.30
2022-11-09T23:57:16.131Z,11.20
